Aviation Digital Data Service (ADDS)

Output produced by METARs form (0018 UTC 23 February 2017)
found at http://aviationweather.gov/adds/metars/
 
KFKL 222329Z 2300/2324 23008KT P6SM OVC030 
     FM230300 20005KT P6SM BKN015 
     FM230600 20003KT P6SM OVC006 
     FM231300 22009KT P6SM VCSH BKN008 
     FM232000 24008KT P6SM BKN020 AMD LTD TO CLD VIS AND WIND